Time;durP1;ratioP1;P1;durP2;ratioP2;P2;SDS_P1;SDS_P2;PMS_P1;PMS_P2;Temp;Humidity;BMP_temperature;BMP_pressure;BME280_temperature;BME280_humidity;BME280_pressure;Samples;Min_cycle;Max_cycle;Signal;HPM_P1;HPM_P2
2021/08/19 00:00:17;;;;;;;7.70;6.70;;;15.60;99.90;;;;;;5032149;28;20182;-81
2021/08/19 00:02:43;;;;;;;9.23;7.20;;;15.60;99.90;;;;;;5017119;28;20174;-81
2021/08/19 00:05:09;;;;;;;7.63;6.70;;;15.60;99.90;;;;;;5031957;28;20929;-82
2021/08/19 00:07:35;;;;;;;6.70;6.20;;;15.50;99.90;;;;;;5032178;28;20961;-83
2021/08/19 00:10:01;;;;;;;8.50;7.60;;;15.50;99.90;;;;;;5016528;28;20406;-82
2021/08/19 00:12:27;;;;;;;8.17;7.30;;;15.50;99.90;;;;;;5016214;28;20210;-81
2021/08/19 00:14:53;;;;;;;15.73;8.40;;;15.60;99.90;;;;;;5016152;28;20422;-82
2021/08/19 00:17:18;;;;;;;7.90;6.90;;;15.60;99.90;;;;;;5016316;28;20326;-81
2021/08/19 00:19:44;;;;;;;8.93;7.13;;;15.50;99.90;;;;;;5016306;28;20615;-82
2021/08/19 00:22:10;;;;;;;8.23;7.13;;;15.50;99.90;;;;;;5031561;28;20175;-82
2021/08/19 00:24:35;;;;;;;8.30;7.50;;;15.50;99.90;;;;;;5032357;28;20257;-82
2021/08/19 00:27:01;;;;;;;8.60;7.70;;;15.50;99.90;;;;;;5016159;28;20619;-82
2021/08/19 00:29:28;;;;;;;7.77;6.97;;;15.50;99.90;;;;;;5016071;28;20193;-82
2021/08/19 00:31:54;;;;;;;11.00;7.23;;;15.60;99.90;;;;;;5031441;28;20202;-82
2021/08/19 00:34:20;;;;;;;9.60;7.57;;;15.50;99.90;;;;;;5015901;28;20472;-82
2021/08/19 00:36:45;;;;;;;7.10;6.40;;;15.50;99.90;;;;;;5031388;28;20336;-82
2021/08/19 00:39:11;;;;;;;8.50;7.60;;;15.50;99.90;;;;;;5031318;28;20171;-81
2021/08/19 00:41:37;;;;;;;8.40;6.87;;;15.60;99.90;;;;;;5015907;28;20253;-81
2021/08/19 00:44:04;;;;;;;7.70;6.90;;;15.70;99.90;;;;;;5015750;28;20515;-82
2021/08/19 00:46:32;;;;;;;7.47;6.10;;;15.70;99.90;;;;;;5015809;28;20406;-82
2021/08/19 00:49:11;;;;;;;7.40;6.70;;;15.60;99.90;;;;;;5031273;28;20504;-82
2021/08/19 00:51:39;;;;;;;11.23;6.90;;;15.60;99.90;;;;;;5015705;28;20455;-81
2021/08/19 00:54:08;;;;;;;6.93;6.40;;;15.60;99.90;;;;;;5015625;28;20500;-82
2021/08/19 00:56:35;;;;;;;6.50;5.90;;;15.70;99.90;;;;;;5015535;28;20406;-82
2021/08/19 00:59:02;;;;;;;9.37;6.00;;;15.60;99.90;;;;;;5015391;28;20410;-82
2021/08/19 01:01:28;;;;;;;8.20;7.00;;;15.60;99.90;;;;;;5015520;28;20413;-81
2021/08/19 01:03:55;;;;;;;7.40;6.70;;;15.60;99.90;;;;;;5015411;28;20900;-81
2021/08/19 01:06:21;;;;;;;7.40;6.70;;;15.60;99.90;;;;;;5015297;28;20612;-82
2021/08/19 01:08:47;;;;;;;7.10;6.37;;;15.70;99.90;;;;;;5030840;28;20519;-82
2021/08/19 01:11:13;;;;;;;10.03;6.90;;;15.70;99.90;;;;;;5014631;28;20182;-81
2021/08/19 01:13:39;;;;;;;8.57;6.23;;;15.70;99.90;;;;;;5015225;28;20171;-82
2021/08/19 01:16:06;;;;;;;7.53;6.87;;;15.60;99.90;;;;;;5015047;28;20429;-81
2021/08/19 01:18:43;;;;;;;7.63;6.93;;;15.60;99.90;;;;;;5015106;28;20405;-82
2021/08/19 01:21:11;;;;;;;9.10;7.07;;;15.60;99.90;;;;;;5030517;28;20425;-81
2021/08/19 01:23:37;;;;;;;8.20;7.40;;;15.60;99.90;;;;;;5015025;28;20406;-81
2021/08/19 01:26:07;;;;;;;8.03;7.23;;;15.50;99.90;;;;;;5015063;28;20750;-82
2021/08/19 01:28:36;;;;;;;9.83;8.00;;;15.40;99.90;;;;;;5030429;28;20485;-82
2021/08/19 01:31:03;;;;;;;8.87;8.13;;;15.30;99.90;;;;;;5030325;28;20460;-81
2021/08/19 01:33:30;;;;;;;10.70;8.30;;;15.30;99.90;;;;;;5030256;28;20425;-81
2021/08/19 01:35:56;;;;;;;9.80;8.70;;;15.30;99.90;;;;;;5014881;28;20456;-81
2021/08/19 01:38:30;;;;;;;9.10;8.20;;;15.30;99.90;;;;;;5030171;28;20813;-81
2021/08/19 01:40:56;;;;;;;10.03;9.03;;;15.30;99.90;;;;;;5015029;28;20861;-81
2021/08/19 01:43:24;;;;;;;11.13;9.60;;;15.20;99.90;;;;;;5030110;28;20422;-81
2021/08/19 01:45:51;;;;;;;10.47;8.40;;;15.20;99.90;;;;;;5014653;28;20475;-81
2021/08/19 01:48:17;;;;;;;9.97;9.00;;;15.10;99.90;;;;;;5014465;28;20414;-82
2021/08/19 01:50:43;;;;;;;12.83;10.77;;;15.10;99.90;;;;;;5014492;28;20413;-82
2021/08/19 01:53:09;;;;;;;10.30;9.30;;;15.10;99.90;;;;;;5029829;28;20205;-82
2021/08/19 01:55:34;;;;;;;10.37;9.37;;;15.20;99.90;;;;;;5030051;28;20175;-81
2021/08/19 01:58:00;;;;;;;10.37;9.37;;;15.20;99.90;;;;;;5014514;28;20461;-81
2021/08/19 02:00:26;;;;;;;9.87;8.87;;;15.20;99.90;;;;;;5029913;28;20261;-82
2021/08/19 02:02:51;;;;;;;9.67;8.67;;;15.20;99.90;;;;;;5014397;28;20166;-82
2021/08/19 02:05:17;;;;;;;12.70;9.27;;;15.10;99.90;;;;;;5014381;28;20183;-81
2021/08/19 02:07:43;;;;;;;8.90;8.10;;;15.10;99.90;;;;;;5014391;28;20171;-81
2021/08/19 02:10:09;;;;;;;10.83;9.73;;;15.10;99.90;;;;;;5014193;28;20253;-82
2021/08/19 02:12:34;;;;;;;10.23;9.20;;;15.20;99.90;;;;;;5014149;28;20321;-81
2021/08/19 02:15:00;;;;;;;14.03;10.30;;;15.10;99.90;;;;;;5014179;28;20958;-82
2021/08/19 02:17:26;;;;;;;14.53;10.33;;;15.10;99.90;;;;;;5014205;28;20163;-82
2021/08/19 02:19:52;;;;;;;10.70;9.70;;;15.10;99.90;;;;;;5029587;28;20232;-81
2021/08/19 02:22:17;;;;;;;11.43;10.23;;;15.10;99.90;;;;;;5013283;28;20285;-81
2021/08/19 02:24:43;;;;;;;10.90;9.00;;;15.20;99.90;;;;;;5014090;28;20181;-81
2021/08/19 02:27:09;;;;;;;11.10;9.83;;;15.10;99.90;;;;;;5029560;28;20201;-82
2021/08/19 02:29:34;;;;;;;15.53;10.23;;;15.10;99.90;;;;;;5029543;28;20250;-81
2021/08/19 02:32:00;;;;;;;10.70;9.80;;;15.00;99.90;;;;;;5013922;28;20186;-82
2021/08/19 02:34:26;;;;;;;12.07;9.10;;;15.00;99.90;;;;;;5029548;28;20171;-81
2021/08/19 02:36:51;;;;;;;13.10;9.53;;;15.10;99.90;;;;;;5029419;28;20170;-81
2021/08/19 02:39:17;;;;;;;10.20;9.07;;;15.10;99.90;;;;;;5013943;28;20623;-81
2021/08/19 02:41:43;;;;;;;12.33;10.53;;;15.10;99.90;;;;;;5013897;28;20624;-81
2021/08/19 02:44:09;;;;;;;15.07;9.80;;;15.10;99.90;;;;;;5013578;28;20182;-82
2021/08/19 02:46:35;;;;;;;11.30;9.27;;;15.00;99.90;;;;;;5014063;28;20181;-82
2021/08/19 02:49:00;;;;;;;12.80;9.23;;;15.00;99.90;;;;;;5013973;28;20752;-82
2021/08/19 02:51:26;;;;;;;10.13;9.13;;;15.10;99.90;;;;;;5029208;28;20209;-82
2021/08/19 02:53:52;;;;;;;10.93;9.47;;;15.00;99.90;;;;;;5013871;28;20194;-82
2021/08/19 02:56:17;;;;;;;9.13;8.23;;;15.10;99.90;;;;;;5013854;28;20198;-82
2021/08/19 02:58:43;;;;;;;9.00;8.20;;;15.20;99.90;;;;;;5013765;28;20181;-81
2021/08/19 03:01:09;;;;;;;9.33;8.30;;;15.20;99.90;;;;;;5013702;28;20189;-81
2021/08/19 03:03:34;;;;;;;9.93;8.43;;;15.30;99.90;;;;;;5013788;28;20201;-81
2021/08/19 03:06:00;;;;;;;13.00;9.30;;;15.40;99.90;;;;;;5029273;28;20521;-81
2021/08/19 03:08:25;;;;;;;11.43;8.83;;;15.40;99.90;;;;;;5013802;28;20191;-82
2021/08/19 03:10:51;;;;;;;9.90;8.47;;;15.30;99.90;;;;;;5013696;28;20608;-81
2021/08/19 03:13:17;;;;;;;9.00;8.20;;;15.30;99.90;;;;;;5013870;28;20199;-81
2021/08/19 03:15:42;;;;;;;8.83;7.50;;;15.30;99.90;;;;;;5013637;28;20517;-81
2021/08/19 03:18:08;;;;;;;8.23;7.43;;;15.20;99.90;;;;;;5013567;28;20599;-82
2021/08/19 03:20:34;;;;;;;8.47;7.47;;;15.20;99.90;;;;;;5013534;28;20171;-81
2021/08/19 03:23:01;;;;;;;7.67;6.97;;;15.40;99.90;;;;;;5013533;28;20739;-82
2021/08/19 03:25:26;;;;;;;10.30;8.00;;;15.40;99.90;;;;;;5013528;28;20933;-82
2021/08/19 03:27:57;;;;;;;8.10;7.00;;;15.40;99.90;;;;;;5028963;28;20410;-81
2021/08/19 03:30:23;;;;;;;9.67;7.73;;;15.40;99.90;;;;;;5028919;28;20169;-82
2021/08/19 03:32:48;;;;;;;10.93;8.20;;;15.40;99.90;;;;;;5013415;28;20445;-81
2021/08/19 03:35:14;;;;;;;7.30;6.60;;;15.30;99.90;;;;;;5017369;28;20177;-82
2021/08/19 03:37:40;;;;;;;10.70;9.23;;;15.20;99.90;;;;;;5017019;28;20178;-81
2021/08/19 03:40:07;;;;;;;8.53;7.73;;;15.20;99.90;;;;;;5016969;28;20175;-82
2021/08/19 03:42:35;;;;;;;9.83;6.90;;;15.20;99.90;;;;;;5016927;28;20409;-81
2021/08/19 03:45:01;;;;;;;9.53;7.27;;;15.30;99.90;;;;;;5016872;28;20409;-81
2021/08/19 03:47:26;;;;;;;8.27;7.43;;;15.40;99.90;;;;;;5016851;28;20456;-81
2021/08/19 03:49:53;;;;;;;9.70;7.93;;;15.40;99.90;;;;;;5017174;28;20181;-81
2021/08/19 03:52:19;;;;;;;8.43;7.53;;;15.40;99.90;;;;;;5032162;28;20203;-82
2021/08/19 03:54:45;;;;;;;9.80;7.30;;;15.40;99.90;;;;;;5032299;28;20471;-81
2021/08/19 03:57:10;;;;;;;13.10;8.60;;;15.40;99.90;;;;;;5016755;28;20163;-82
2021/08/19 03:59:36;;;;;;;9.67;8.30;;;15.40;99.90;;;;;;5032143;28;20189;-82
2021/08/19 04:02:02;;;;;;;7.57;6.77;;;15.30;99.90;;;;;;5016579;28;20175;-82
2021/08/19 04:04:28;;;;;;;7.87;7.03;;;15.40;99.90;;;;;;5016617;28;20596;-81
2021/08/19 04:06:53;;;;;;;9.60;7.83;;;15.40;99.90;;;;;;5016541;28;20173;-82
2021/08/19 04:09:19;;;;;;;12.17;8.40;;;15.40;99.90;;;;;;5016421;28;20241;-82
2021/08/19 04:11:44;;;;;;;8.40;7.57;;;15.50;99.90;;;;;;5015314;28;20624;-81
2021/08/19 04:14:11;;;;;;;9.63;8.70;;;15.40;99.90;;;;;;5016250;28;20246;-81
2021/08/19 04:16:36;;;;;;;11.77;8.20;;;15.40;99.90;;;;;;5016409;28;20644;-81
2021/08/19 04:19:02;;;;;;;10.47;9.10;;;15.40;99.90;;;;;;5031735;28;20492;-82
2021/08/19 04:21:28;;;;;;;13.90;8.27;;;15.40;99.90;;;;;;5016220;28;20167;-81
2021/08/19 04:23:54;;;;;;;8.37;7.27;;;15.40;99.90;;;;;;5016357;28;20177;-81
2021/08/19 04:26:19;;;;;;;12.57;9.03;;;15.30;99.90;;;;;;5016219;28;20190;-82
2021/08/19 04:28:45;;;;;;;11.03;8.83;;;15.40;99.90;;;;;;5016045;28;20178;-81
2021/08/19 04:31:11;;;;;;;9.47;7.60;;;15.40;99.90;;;;;;5016003;28;20163;-82
2021/08/19 04:33:36;;;;;;;13.43;9.00;;;15.40;99.90;;;;;;5016084;28;20264;-81
2021/08/19 04:36:03;;;;;;;10.23;9.23;;;15.40;99.90;;;;;;5016068;28;20274;-82
2021/08/19 04:38:29;;;;;;;11.00;8.20;;;15.40;99.90;;;;;;5031491;28;20256;-82
2021/08/19 04:40:55;;;;;;;10.93;8.93;;;15.40;99.90;;;;;;5015890;28;20749;-82
2021/08/19 04:43:21;;;;;;;11.03;9.07;;;15.40;99.90;;;;;;5015810;28;20406;-81
2021/08/19 04:45:47;;;;;;;8.93;8.03;;;15.40;99.90;;;;;;5030316;28;20237;-81
2021/08/19 04:48:13;;;;;;;9.40;8.47;;;15.40;99.90;;;;;;5015765;28;20496;-82
2021/08/19 04:50:39;;;;;;;11.27;9.17;;;15.40;99.90;;;;;;5015681;28;20787;-81
2021/08/19 04:53:05;;;;;;;9.87;8.87;;;15.40;99.90;;;;;;5015597;28;20273;-82
2021/08/19 04:55:31;;;;;;;10.27;7.80;;;15.40;99.90;;;;;;5031235;28;20237;-81
2021/08/19 04:57:56;;;;;;;9.57;8.57;;;15.40;99.90;;;;;;5015596;28;20174;-81
2021/08/19 05:00:22;;;;;;;8.80;7.93;;;15.30;99.90;;;;;;5031009;28;20668;-82
2021/08/19 05:02:47;;;;;;;10.23;9.23;;;15.40;99.90;;;;;;5015441;28;20535;-82
2021/08/19 05:05:13;;;;;;;11.17;9.50;;;15.40;99.90;;;;;;5015494;28;20241;-81
2021/08/19 05:07:39;;;;;;;12.53;9.50;;;15.40;99.90;;;;;;5030854;28;20691;-82
2021/08/19 05:10:05;;;;;;;11.00;9.87;;;15.30;99.90;;;;;;5015323;28;20571;-82
2021/08/19 05:12:31;;;;;;;12.13;8.73;;;15.30;99.90;;;;;;5030803;28;20198;-82
2021/08/19 05:14:56;;;;;;;13.03;8.50;;;15.20;99.90;;;;;;5030671;28;20814;-82
2021/08/19 05:17:22;;;;;;;11.73;9.40;;;15.20;99.90;;;;;;5030665;28;20175;-82
2021/08/19 05:19:47;;;;;;;9.50;8.37;;;15.20;99.90;;;;;;5015119;28;20229;-82
2021/08/19 05:22:13;;;;;;;10.60;9.53;;;15.20;99.90;;;;;;5015066;28;20166;-82
2021/08/19 05:24:39;;;;;;;10.33;8.63;;;15.30;99.90;;;;;;5030436;28;20195;-82
2021/08/19 05:27:05;;;;;;;9.40;8.30;;;15.30;99.90;;;;;;5030628;28;20174;-82
2021/08/19 05:29:31;;;;;;;10.63;8.30;;;15.30;99.90;;;;;;5030358;28;20412;-82
2021/08/19 05:31:56;;;;;;;12.73;8.73;;;15.30;99.90;;;;;;5014852;28;20190;-81
2021/08/19 05:34:22;;;;;;;10.47;8.87;;;15.40;99.90;;;;;;5014892;28;20167;-82
2021/08/19 05:36:48;;;;;;;10.93;9.00;;;15.30;99.90;;;;;;5014923;28;20170;-81
2021/08/19 05:39:13;;;;;;;10.63;8.60;;;15.40;99.90;;;;;;5014747;28;20170;-82
2021/08/19 05:41:39;;;;;;;9.00;8.13;;;15.40;99.90;;;;;;5014665;28;20179;-81
2021/08/19 05:44:05;;;;;;;9.53;8.50;;;15.50;99.90;;;;;;5014681;28;20257;-82
2021/08/19 05:46:30;;;;;;;10.00;8.00;;;15.40;99.90;;;;;;5014790;28;20177;-81
2021/08/19 05:48:56;;;;;;;8.70;7.77;;;15.30;99.90;;;;;;5030064;28;20254;-82
2021/08/19 05:51:22;;;;;;;7.73;6.90;;;15.40;99.90;;;;;;5014485;28;20179;-82
2021/08/19 05:53:48;;;;;;;7.63;6.93;;;15.40;99.90;;;;;;5014684;28;20190;-82
2021/08/19 05:56:13;;;;;;;7.60;6.67;;;15.50;99.90;;;;;;5014386;28;20619;-82
2021/08/19 05:58:39;;;;;;;7.87;7.20;;;15.60;99.90;;;;;;5014455;28;20409;-82
2021/08/19 06:01:04;;;;;;;8.37;7.47;;;15.60;99.90;;;;;;5014659;28;20197;-81
2021/08/19 06:03:30;;;;;;;10.60;7.43;;;15.60;99.90;;;;;;5029888;28;20174;-82
2021/08/19 06:06:25;;;;;;;10.97;7.90;;;15.70;99.90;;;;;;5014465;28;20166;-81
2021/08/19 06:08:50;;;;;;;9.70;8.70;;;15.70;99.90;;;;;;5014293;28;20706;-81
2021/08/19 06:11:16;;;;;;;7.77;7.00;;;15.80;99.90;;;;;;5014242;28;20445;-82
2021/08/19 06:13:42;;;;;;;8.03;7.23;;;15.70;99.90;;;;;;5029754;28;20261;-82
2021/08/19 06:16:07;;;;;;;9.17;8.13;;;15.80;99.90;;;;;;5014167;28;20208;-81
2021/08/19 06:18:33;;;;;;;10.03;7.80;;;16.00;99.90;;;;;;5014160;28;20174;-81
2021/08/19 06:20:59;;;;;;;11.70;8.30;;;16.10;99.90;;;;;;5014166;28;20162;-81
2021/08/19 06:23:24;;;;;;;7.40;6.60;;;16.00;99.90;;;;;;5014228;28;20520;-82
2021/08/19 06:25:50;;;;;;;11.07;7.70;;;15.90;99.90;;;;;;5014093;28;20224;-81
2021/08/19 06:28:17;;;;;;;7.43;6.73;;;15.90;99.90;;;;;;5014116;28;20675;-82
2021/08/19 06:30:43;;;;;;;8.83;7.50;;;16.00;99.90;;;;;;5029514;28;20174;-82
2021/08/19 06:33:10;;;;;;;9.90;8.47;;;16.00;99.90;;;;;;5013951;28;20531;-81
2021/08/19 06:35:35;;;;;;;12.63;7.60;;;16.00;99.90;;;;;;5029403;28;20608;-82
2021/08/19 06:38:01;;;;;;;7.77;6.97;;;16.00;99.90;;;;;;5014298;28;20428;-82
2021/08/19 06:40:27;;;;;;;8.30;7.30;;;16.10;99.90;;;;;;5029425;28;20170;-81
2021/08/19 06:42:53;;;;;;;7.87;7.17;;;16.30;99.90;;;;;;5013961;28;20177;-82
2021/08/19 06:45:20;;;;;;;10.60;7.03;;;16.30;99.90;;;;;;5013856;28;20232;-82
2021/08/19 06:47:46;;;;;;;7.60;6.90;;;16.40;99.90;;;;;;5013971;28;20171;-82
2021/08/19 06:50:12;;;;;;;10.03;6.40;;;16.50;99.90;;;;;;5013972;28;20444;-81
2021/08/19 06:52:43;;;;;;;9.23;7.00;;;16.50;99.90;;;;;;5013797;28;20264;-82
2021/08/19 06:55:11;;;;;;;9.00;6.50;;;16.40;99.90;;;;;;5013833;28;20244;-81
2021/08/19 06:57:37;;;;;;;7.70;6.63;;;16.40;99.90;;;;;;5013835;28;20406;-82
2021/08/19 07:00:05;;;;;;;8.33;6.63;;;16.60;99.90;;;;;;5013821;28;20405;-81
2021/08/19 07:02:31;;;;;;;7.37;6.40;;;16.60;99.90;;;;;;5013609;28;20406;-82
2021/08/19 07:04:56;;;;;;;7.53;6.60;;;16.70;99.90;;;;;;5013720;28;20416;-82
2021/08/19 07:07:26;;;;;;;7.57;6.83;;;16.70;99.90;;;;;;5014059;28;20608;-81
2021/08/19 07:09:51;;;;;;;8.77;5.90;;;16.70;99.90;;;;;;5032637;28;20202;-82
2021/08/19 07:12:17;;;;;;;7.00;6.30;;;16.60;99.90;;;;;;5033016;28;20996;-81
2021/08/19 07:14:42;;;;;;;6.60;5.90;;;16.60;99.90;;;;;;5017521;28;20186;-82
2021/08/19 07:17:08;;;;;;;8.40;6.40;;;16.50;99.90;;;;;;5017417;28;20170;-82
2021/08/19 07:19:34;;;;;;;10.90;6.70;;;16.50;99.90;;;;;;5017469;28;20262;-82
2021/08/19 07:21:59;;;;;;;14.13;6.87;;;16.50;99.90;;;;;;5032862;28;20667;-82
2021/08/19 07:24:25;;;;;;;5.97;5.40;;;16.60;99.90;;;;;;5032737;28;20232;-82
2021/08/19 07:26:51;;;;;;;7.10;5.60;;;16.60;99.90;;;;;;5017209;28;20611;-82
2021/08/19 07:29:16;;;;;;;8.47;6.57;;;16.70;99.90;;;;;;5017228;28;20576;-82
2021/08/19 07:31:42;;;;;;;7.73;6.43;;;16.80;99.90;;;;;;5017076;28;20612;-82
2021/08/19 07:34:08;;;;;;;7.70;6.57;;;16.80;99.90;;;;;;5032628;28;20266;-81
2021/08/19 07:36:34;;;;;;;8.33;6.53;;;16.90;99.90;;;;;;5032528;28;20501;-82
2021/08/19 07:39:04;;;;;;;10.37;6.83;;;16.90;99.90;;;;;;5017078;28;20417;-81
2021/08/19 07:41:34;;;;;;;8.33;6.20;;;16.80;99.90;;;;;;5032433;28;20421;-81
2021/08/19 07:44:00;;;;;;;11.30;6.87;;;16.80;99.90;;;;;;5016913;28;20406;-82
2021/08/19 07:46:26;;;;;;;8.33;6.87;;;16.70;99.90;;;;;;5016930;28;20412;-82
2021/08/19 07:48:52;;;;;;;6.87;6.10;;;16.70;99.90;;;;;;5017117;28;20488;-82
2021/08/19 07:51:17;;;;;;;7.50;5.90;;;16.60;99.90;;;;;;5032216;28;20505;-82
2021/08/19 07:53:43;;;;;;;7.30;6.07;;;16.70;99.90;;;;;;5032385;28;20552;-82
2021/08/19 07:56:09;;;;;;;6.37;5.87;;;16.70;99.90;;;;;;5032247;28;20205;-82
2021/08/19 07:58:35;;;;;;;7.07;6.47;;;16.70;99.90;;;;;;5032318;28;20189;-82
2021/08/19 08:01:01;;;;;;;7.67;6.97;;;16.80;99.90;;;;;;5032131;28;20414;-82
2021/08/19 08:03:27;;;;;;;11.23;6.67;;;16.90;99.90;;;;;;5032063;28;20170;-82
2021/08/19 08:05:53;;;;;;;6.87;6.27;;;17.00;99.90;;;;;;5016583;28;20171;-82
2021/08/19 08:08:18;;;;;;;6.20;5.60;;;17.00;99.90;;;;;;5016517;28;20173;-81
2021/08/19 08:10:44;;;;;;;8.30;6.80;;;17.10;99.90;;;;;;5031948;28;20453;-82
2021/08/19 08:13:11;;;;;;;8.47;6.53;;;17.00;99.90;;;;;;5016341;28;20201;-81
2021/08/19 08:15:39;;;;;;;6.30;5.70;;;17.10;99.90;;;;;;5016340;28;20190;-82
2021/08/19 08:18:05;;;;;;;8.63;6.57;;;17.20;99.90;;;;;;5016352;28;20492;-82
2021/08/19 08:20:33;;;;;;;6.90;6.20;;;17.30;99.90;;;;;;5016193;28;20485;-82
2021/08/19 08:22:59;;;;;;;6.40;5.60;;;17.40;99.90;;;;;;5016550;28;20414;-82
2021/08/19 08:25:24;;;;;;;12.53;6.27;;;17.50;99.90;;;;;;5031709;28;20467;-81
2021/08/19 08:27:53;;;;;;;6.03;5.27;;;17.50;99.90;;;;;;5016232;28;20417;-82
2021/08/19 08:30:19;;;;;;;5.93;5.07;;;17.60;99.90;;;;;;5031591;28;20244;-82
2021/08/19 08:32:44;;;;;;;11.67;5.93;;;17.50;99.90;;;;;;5015883;28;20449;-82
2021/08/19 08:35:10;;;;;;;6.77;5.30;;;17.60;99.90;;;;;;5016041;28;20249;-82
2021/08/19 08:37:36;;;;;;;8.20;5.20;;;17.70;99.90;;;;;;5016010;28;20185;-82
2021/08/19 08:40:02;;;;;;;9.37;5.40;;;17.80;99.90;;;;;;5015880;28;20173;-82
2021/08/19 08:42:29;;;;;;;5.10;4.70;;;17.80;99.90;;;;;;5015779;28;20257;-82
2021/08/19 08:44:55;;;;;;;5.57;4.87;;;17.90;99.90;;;;;;5015785;28;20466;-82
2021/08/19 08:47:21;;;;;;;8.20;5.30;;;18.00;99.90;;;;;;5015820;28;20414;-82
2021/08/19 08:49:47;;;;;;;9.33;5.33;;;18.00;99.90;;;;;;5015697;28;20202;-82
2021/08/19 08:52:13;;;;;;;7.43;5.70;;;17.80;99.90;;;;;;5015512;28;20481;-82
2021/08/19 08:54:39;;;;;;;5.97;5.23;;;17.80;99.90;;;;;;5015646;28;20163;-82
2021/08/19 08:57:04;;;;;;;7.93;4.70;;;17.80;99.90;;;;;;5015668;28;20175;-82
2021/08/19 08:59:30;;;;;;;7.93;5.80;;;17.80;99.90;;;;;;5015572;28;20600;-82
2021/08/19 09:01:56;;;;;;;6.27;5.67;;;17.80;99.90;;;;;;5031113;28;20175;-82
2021/08/19 09:04:23;;;;;;;5.97;5.40;;;17.80;99.90;;;;;;5015451;28;20237;-82
2021/08/19 09:06:49;;;;;;;6.70;6.00;;;18.00;99.90;;;;;;5030899;28;20417;-82
2021/08/19 09:09:23;;;;;;;11.03;6.27;;;18.20;99.90;;;;;;5015474;28;20414;-82
2021/08/19 09:11:56;;;;;;;8.03;5.60;;;18.30;99.90;;;;;;5015205;28;20433;-82
2021/08/19 09:14:24;;;;;;;8.03;6.20;;;18.50;99.90;;;;;;5015243;28;20501;-82
2021/08/19 09:16:50;;;;;;;8.20;5.40;;;18.50;99.90;;;;;;5030753;28;20460;-82
2021/08/19 09:19:19;;;;;;;5.70;5.30;;;18.60;99.90;;;;;;5015310;28;20405;-82
2021/08/19 09:21:51;;;;;;;5.57;5.07;;;18.60;99.90;;;;;;5015191;28;20445;-82
2021/08/19 09:24:28;;;;;;;5.27;4.77;;;18.60;99.90;;;;;;5030616;28;20406;-82
2021/08/19 09:26:55;;;;;;;6.83;4.60;;;18.60;99.90;;;;;;5015135;28;20417;-82
2021/08/19 09:29:24;;;;;;;5.60;4.83;;;18.40;99.90;;;;;;5013956;28;20424;-82
2021/08/19 09:31:53;;;;;;;5.93;4.53;;;18.40;99.90;;;;;;5029673;28;21051;-82
2021/08/19 09:34:19;;;;;;;4.50;4.10;;;18.50;99.90;;;;;;5014833;28;20416;-82
2021/08/19 09:36:45;;;;;;;6.63;6.03;;;18.50;99.90;;;;;;5014851;28;20434;-82
2021/08/19 09:39:11;;;;;;;9.20;5.70;;;18.50;99.90;;;;;;5014851;28;20887;-82
2021/08/19 09:41:51;;;;;;;7.40;6.43;;;18.40;99.90;;;;;;5014840;28;20468;-82
2021/08/19 09:44:31;;;;;;;7.03;6.43;;;18.30;99.90;;;;;;5030228;28;20483;-82
2021/08/19 09:46:57;;;;;;;7.03;6.33;;;18.20;99.90;;;;;;5030156;28;20500;-82
2021/08/19 09:49:29;;;;;;;9.23;6.30;;;18.20;99.90;;;;;;5014712;28;20501;-82
2021/08/19 09:52:06;;;;;;;7.50;6.80;;;18.30;99.90;;;;;;5014554;28;20202;-82
2021/08/19 09:54:37;;;;;;;7.80;6.67;;;18.40;99.90;;;;;;5014574;28;20388;-82
2021/08/19 09:57:04;;;;;;;7.93;7.17;;;18.50;99.90;;;;;;5030037;28;20402;-82
2021/08/19 09:59:35;;;;;;;9.10;8.17;;;18.60;99.90;;;;;;5029691;28;20406;-82
2021/08/19 10:02:01;;;;;;;10.03;6.93;;;18.60;99.90;;;;;;5029784;28;20416;-82
2021/08/19 10:04:27;;;;;;;10.00;7.70;;;18.60;99.90;;;;;;5014237;28;20448;-81
2021/08/19 10:06:54;;;;;;;11.27;8.27;;;18.60;99.90;;;;;;5029880;28;20409;-82
2021/08/19 10:09:20;;;;;;;9.00;8.13;;;18.70;99.90;;;;;;5014404;28;20240;-81
2021/08/19 10:11:48;;;;;;;11.60;8.57;;;18.80;99.90;;;;;;5014184;28;20441;-82
2021/08/19 10:14:17;;;;;;;10.40;9.40;;;18.70;99.90;;;;;;5029657;28;20503;-82
2021/08/19 10:16:44;;;;;;;10.00;8.77;;;18.70;99.90;;;;;;5014327;28;20389;-82
2021/08/19 10:19:14;;;;;;;8.30;7.50;;;18.70;99.90;;;;;;5029749;28;20452;-82
2021/08/19 10:21:44;;;;;;;8.23;7.43;;;18.80;99.90;;;;;;5014112;28;20409;-81
2021/08/19 10:24:11;;;;;;;7.90;7.30;;;18.80;99.90;;;;;;5014186;28;20409;-82
2021/08/19 10:26:37;;;;;;;8.27;7.57;;;18.80;99.90;;;;;;5029507;28;20409;-82
2021/08/19 10:29:04;;;;;;;10.60;7.43;;;19.00;99.90;;;;;;5014199;28;20436;-82
2021/08/19 10:31:44;;;;;;;9.87;6.60;;;18.90;99.90;;;;;;5014051;28;20406;-82
2021/08/19 10:34:18;;;;;;;8.40;6.40;;;18.90;99.90;;;;;;5014011;28;20802;-82
2021/08/19 10:36:50;;;;;;;5.93;5.33;;;18.80;99.90;;;;;;5014099;28;20424;-81
2021/08/19 10:39:18;;;;;;;6.00;5.53;;;18.80;99.90;;;;;;5013872;28;20393;-81
2021/08/19 10:41:48;;;;;;;5.63;5.10;;;18.80;99.90;;;;;;5013857;28;20944;-82
2021/08/19 10:44:14;;;;;;;5.83;5.23;;;18.90;99.90;;;;;;5019373;28;20434;-82
2021/08/19 10:46:45;;;;;;;6.80;5.80;;;19.00;99.90;;;;;;4998323;28;20479;-82
2021/08/19 10:49:30;;;;;;;6.33;5.70;;;19.20;99.90;;;;;;4997771;28;20740;-82
2021/08/19 10:52:16;;;;;;;4.83;4.43;;;19.50;99.90;;;;;;5016783;28;20516;-82
2021/08/19 10:54:46;;;;;;;5.33;4.93;;;19.60;99.90;;;;;;5017886;28;20416;-82
2021/08/19 10:57:21;;;;;;;6.00;5.43;;;19.70;99.90;;;;;;5017863;28;20389;-82
2021/08/19 11:00:05;;;;;;;5.83;5.10;;;19.60;99.90;;;;;;5017725;28;20412;-82
2021/08/19 11:02:38;;;;;;;6.23;5.47;;;19.60;99.90;;;;;;5017784;28;20421;-82
2021/08/19 11:05:06;;;;;;;5.23;4.83;;;19.80;99.90;;;;;;5017585;28;20471;-82
2021/08/19 11:07:52;;;;;;;6.87;5.20;;;20.00;99.90;;;;;;5033090;28;20765;-82
2021/08/19 11:10:21;;;;;;;5.93;5.43;;;20.10;99.90;;;;;;5017524;28;20405;-82
2021/08/19 11:12:47;;;;;;;7.57;5.70;;;20.10;99.90;;;;;;5016556;28;20873;-82
2021/08/19 11:15:13;;;;;;;6.93;5.70;;;20.20;99.90;;;;;;5017374;28;20425;-82
2021/08/19 11:17:49;;;;;;;5.73;5.23;;;20.10;99.90;;;;;;5017534;28;20402;-82
2021/08/19 11:20:33;;;;;;;6.23;4.97;;;20.10;99.90;;;;;;5033013;28;20409;-82
2021/08/19 11:23:08;;;;;;;6.50;5.97;;;19.90;99.90;;;;;;5017458;28;20851;-82
2021/08/19 11:25:39;;;;;;;4.70;4.30;;;19.70;99.90;;;;;;5017378;28;20393;-82
2021/08/19 11:28:18;;;;;;;4.97;4.57;;;19.50;99.90;;;;;;5017324;28;20397;-82
2021/08/19 11:30:51;;;;;;;7.13;5.80;;;19.40;99.90;;;;;;5016240;28;20417;-82
2021/08/19 11:33:19;;;;;;;5.10;4.60;;;19.20;99.90;;;;;;5017182;28;20555;-82
2021/08/19 11:35:49;;;;;;;6.70;6.03;;;19.30;99.90;;;;;;5017130;28;20401;-82
2021/08/19 11:38:20;;;;;;;6.50;5.90;;;19.30;99.90;;;;;;5017188;28;20393;-82
2021/08/19 11:40:49;;;;;;;6.43;5.40;;;19.30;99.90;;;;;;5017152;28;20448;-82
2021/08/19 11:43:25;;;;;;;6.20;5.60;;;19.20;99.90;;;;;;5017082;28;20740;-82
2021/08/19 11:45:54;;;;;;;5.30;4.90;;;19.10;99.90;;;;;;5016974;28;20480;-82
2021/08/19 11:48:21;;;;;;;5.20;4.80;;;19.20;99.90;;;;;;5016817;28;20426;-82
2021/08/19 11:50:55;;;;;;;8.37;5.97;;;19.20;99.90;;;;;;5016917;28;20413;-82
2021/08/19 11:53:22;;;;;;;7.23;6.63;;;19.20;99.90;;;;;;5016821;28;20517;-82
2021/08/19 11:55:48;;;;;;;10.40;7.40;;;19.30;99.90;;;;;;5016411;28;20413;-82
2021/08/19 11:58:24;;;;;;;10.20;8.80;;;19.50;99.90;;;;;;5032074;28;20410;-82
2021/08/19 12:01:10;;;;;;;9.57;8.00;;;19.60;99.90;;;;;;5016697;28;20830;-82
2021/08/19 12:03:39;;;;;;;8.67;7.93;;;19.60;99.90;;;;;;5016753;28;20413;-82
2021/08/19 12:06:13;;;;;;;10.63;8.37;;;19.50;99.90;;;;;;5015668;28;20413;-82
2021/08/19 12:08:48;;;;;;;6.53;6.07;;;19.30;99.90;;;;;;5016466;28;20481;-82
2021/08/19 12:11:25;;;;;;;7.60;6.90;;;19.50;99.90;;;;;;5016532;28;20389;-82
2021/08/19 12:13:53;;;;;;;6.90;6.30;;;19.60;99.90;;;;;;5016366;28;20408;-81
2021/08/19 12:16:25;;;;;;;5.73;5.23;;;19.80;99.90;;;;;;5016376;28;20941;-81
2021/08/19 12:19:23;;;;;;;7.73;6.97;;;19.80;99.90;;;;;;5016349;28;20859;-81
2021/08/19 12:21:52;;;;;;;10.10;7.00;;;19.80;99.90;;;;;;5016373;28;20437;-81
2021/08/19 12:24:23;;;;;;;6.30;5.70;;;19.80;99.90;;;;;;5016278;28;20410;-82
2021/08/19 12:27:20;;;;;;;6.30;5.63;;;19.70;99.90;;;;;;5016225;28;20749;-81
2021/08/19 12:29:52;;;;;;;6.23;4.87;;;19.60;99.90;;;;;;5015907;28;20418;-81
2021/08/19 12:32:27;;;;;;;5.67;5.17;;;19.60;99.90;;;;;;5031680;28;20449;-81
2021/08/19 12:34:58;;;;;;;5.27;4.80;;;19.40;99.90;;;;;;5015964;28;20492;-81
2021/08/19 12:37:25;;;;;;;4.50;4.20;;;19.30;99.90;;;;;;5031510;28;20421;-81
2021/08/19 12:39:50;;;;;;;3.80;3.50;;;19.20;99.90;;;;;;5016766;28;20406;-81
2021/08/19 12:42:16;;;;;;;4.23;3.90;;;19.20;99.90;;;;;;5015865;28;20502;-81
2021/08/19 12:45:04;;;;;;;4.10;3.80;;;19.10;99.90;;;;;;5015733;28;20171;-81